createdAt,value
2019-03-28T00:01:35.737Z,73.71
2019-03-28T00:04:04.079Z,73.63
2019-03-28T00:06:31.941Z,73.63
2019-03-28T00:08:59.916Z,73.52
2019-03-28T00:11:27.809Z,73.59
2019-03-28T00:13:55.664Z,73.48
2019-03-28T00:16:23.450Z,73.42
2019-03-28T00:18:51.259Z,73.56
2019-03-28T00:21:19.097Z,73.57
2019-03-28T00:24:01.211Z,73.52
2019-03-28T00:26:30.477Z,73.35
2019-03-28T00:28:58.497Z,73.21
2019-03-28T00:31:26.330Z,73.10
2019-03-28T00:33:54.173Z,73.04
2019-03-28T00:36:22.010Z,73.04
2019-03-28T00:38:50.172Z,72.87
2019-03-28T00:41:18.257Z,73.07
2019-03-28T00:43:46.072Z,73.07
2019-03-28T00:46:13.890Z,73.15
2019-03-28T00:48:41.844Z,73.23
2019-03-28T00:51:09.684Z,73.23
2019-03-28T00:53:37.534Z,72.97
2019-03-28T00:56:05.381Z,72.89
2019-03-28T00:58:33.246Z,73.11
2019-03-28T01:01:01.067Z,73.15
2019-03-28T01:03:28.967Z,73.14
2019-03-28T01:05:56.778Z,73.14
2019-03-28T01:08:24.638Z,73.33
2019-03-28T01:10:52.462Z,73.41
2019-03-28T01:13:20.306Z,73.58
2019-03-28T01:15:48.156Z,73.47
2019-03-28T01:18:16.001Z,73.38
2019-03-28T01:20:43.780Z,73.31
2019-03-28T01:23:11.637Z,73.31
2019-03-28T01:25:39.445Z,73.05
2019-03-28T01:28:07.216Z,73.03
2019-03-28T01:30:35.085Z,73.04
2019-03-28T01:33:02.877Z,73.03
2019-03-28T01:35:30.673Z,72.92
2019-03-28T01:37:58.527Z,72.98
2019-03-28T01:40:26.401Z,72.96
2019-03-28T01:42:54.238Z,72.91
2019-03-28T01:45:22.039Z,72.93
2019-03-28T01:47:49.822Z,72.88
2019-03-28T01:50:17.728Z,72.84
2019-03-28T01:52:45.526Z,72.78
2019-03-28T01:55:13.350Z,72.82
2019-03-28T01:57:41.193Z,72.83
2019-03-28T02:00:10.093Z,73.06
2019-03-28T02:02:37.905Z,73.29
2019-03-28T02:05:06.332Z,73.14
2019-03-28T02:07:34.095Z,73.14
2019-03-28T02:10:01.931Z,73.17
2019-03-28T02:12:29.776Z,73.07
2019-03-28T02:14:57.678Z,72.96
2019-03-28T02:17:25.558Z,72.84
2019-03-28T02:19:53.381Z,72.77
2019-03-28T02:22:21.180Z,72.60
2019-03-28T02:24:49.051Z,72.48
2019-03-28T02:27:23.979Z,72.44
2019-03-28T02:29:46.669Z,72.41
2019-03-28T02:32:14.569Z,72.41
2019-03-28T02:34:42.513Z,72.31
2019-03-28T02:37:10.456Z,72.46
2019-03-28T02:39:38.297Z,72.37
2019-03-28T02:42:06.169Z,72.35
2019-03-28T02:44:34.072Z,72.30
2019-03-28T02:47:01.905Z,72.24
2019-03-28T02:49:29.867Z,72.18
2019-03-28T02:51:57.710Z,72.12
2019-03-28T02:54:25.555Z,71.83
2019-03-28T02:56:53.552Z,71.83
2019-03-28T02:59:21.380Z,71.87
2019-03-28T03:01:49.177Z,71.82
2019-03-28T03:04:17.120Z,71.77
2019-03-28T03:06:44.996Z,71.86
2019-03-28T03:09:12.857Z,71.80
2019-03-28T03:11:42.715Z,71.84
2019-03-28T03:14:11.881Z,71.84
2019-03-28T03:16:40.061Z,71.67
2019-03-28T03:19:07.901Z,71.64
2019-03-28T03:21:36.070Z,71.55
2019-03-28T03:24:04.152Z,71.47
2019-03-28T03:26:32.043Z,71.46
2019-03-28T03:28:59.886Z,71.46
2019-03-28T03:31:27.705Z,71.46
2019-03-28T03:33:55.588Z,71.44
2019-03-28T03:36:23.458Z,71.45
2019-03-28T03:38:51.298Z,71.42
2019-03-28T03:41:19.169Z,71.37
2019-03-28T03:43:46.960Z,71.28
2019-03-28T03:46:14.781Z,71.28
2019-03-28T03:48:42.744Z,71.25
2019-03-28T03:51:10.626Z,71.24
2019-03-28T03:53:38.461Z,71.22
2019-03-28T03:56:06.432Z,71.55
2019-03-28T03:58:34.245Z,71.25
2019-03-28T04:01:02.121Z,71.25
2019-03-28T04:03:30.034Z,71.27
2019-03-28T04:05:57.903Z,71.26
2019-03-28T04:08:26.995Z,71.34
2019-03-28T04:10:55.220Z,71.52
2019-03-28T04:13:23.016Z,71.52
2019-03-28T04:15:51.031Z,71.62
2019-03-28T04:18:22.086Z,71.63
2019-03-28T04:20:48.684Z,71.57
2019-03-28T04:23:16.553Z,71.59
2019-03-28T04:25:44.367Z,71.47
2019-03-28T04:28:12.769Z,71.47
2019-03-28T04:30:40.871Z,71.65
2019-03-28T04:33:08.734Z,71.65
2019-03-28T04:35:36.559Z,71.53
2019-03-28T04:38:04.373Z,71.53
2019-03-28T04:40:32.247Z,71.42
2019-03-28T04:43:00.114Z,71.42
2019-03-28T04:45:28.035Z,71.62
2019-03-28T04:47:55.984Z,71.67
2019-03-28T04:50:23.800Z,71.69
2019-03-28T04:52:53.002Z,71.69
2019-03-28T04:55:21.390Z,71.69
2019-03-28T04:57:49.367Z,71.58
2019-03-28T05:00:17.532Z,71.58
2019-03-28T05:02:46.116Z,71.62
2019-03-28T05:05:14.241Z,71.59
2019-03-28T05:07:42.402Z,71.58
2019-03-28T05:10:11.207Z,71.56
2019-03-28T05:12:39.062Z,71.57
2019-03-28T05:15:08.759Z,71.82
2019-03-28T05:17:36.756Z,72.58
2019-03-28T05:20:05.501Z,72.58
2019-03-28T05:22:33.335Z,72.77
2019-03-28T05:25:01.199Z,72.68
2019-03-28T05:27:29.063Z,72.68
2019-03-28T05:29:56.864Z,72.75
2019-03-28T05:32:24.684Z,72.62
2019-03-28T05:34:52.547Z,72.86
2019-03-28T05:37:20.360Z,72.78
2019-03-28T05:39:48.234Z,72.78
2019-03-28T05:42:16.187Z,72.71
2019-03-28T05:44:44.031Z,72.23
2019-03-28T05:47:11.839Z,72.23
2019-03-28T05:49:39.710Z,72.61
2019-03-28T05:52:07.569Z,73.50
2019-03-28T05:54:35.448Z,73.50
2019-03-28T05:57:03.309Z,73.33
2019-03-28T05:59:31.152Z,73.18
2019-03-28T06:01:59.004Z,72.99
2019-03-28T06:04:26.870Z,73.22
2019-03-28T06:06:54.788Z,73.25
2019-03-28T06:09:22.640Z,73.14
2019-03-28T06:11:52.855Z,73.01
2019-03-28T06:14:20.278Z,72.90
2019-03-28T06:16:48.110Z,72.93
2019-03-28T06:19:16.002Z,73.29
2019-03-28T06:21:43.858Z,73.20
2019-03-28T06:24:11.761Z,73.15
2019-03-28T06:26:39.603Z,73.01
2019-03-28T06:29:08.697Z,72.99
2019-03-28T06:31:36.888Z,74.02
2019-03-28T06:34:04.772Z,74.02
2019-03-28T06:36:32.612Z,74.39
2019-03-28T06:39:00.472Z,73.95
2019-03-28T06:41:28.406Z,73.62
2019-03-28T06:43:56.188Z,73.82
2019-03-28T06:46:24.077Z,73.97
2019-03-28T06:48:51.962Z,73.90
2019-03-28T06:51:19.772Z,73.81
2019-03-28T06:53:47.670Z,73.70
2019-03-28T06:56:15.469Z,73.56
2019-03-28T06:58:43.334Z,73.56
2019-03-28T07:01:11.241Z,73.37
2019-03-28T07:03:39.050Z,73.14
2019-03-28T07:06:06.914Z,73.14
2019-03-28T07:08:34.775Z,73.15
2019-03-28T07:11:02.791Z,73.12
2019-03-28T07:13:31.212Z,72.97
2019-03-28T07:15:59.068Z,73.14
2019-03-28T07:18:26.904Z,73.02
2019-03-28T07:20:54.768Z,73.07
2019-03-28T07:23:22.671Z,73.07
2019-03-28T07:25:50.487Z,72.98
2019-03-28T07:28:18.317Z,72.91
2019-03-28T07:30:46.201Z,72.94
2019-03-28T07:33:14.063Z,72.89
2019-03-28T07:35:42.038Z,72.79
2019-03-28T07:38:10.143Z,72.79
2019-03-28T07:40:37.963Z,72.57
2019-03-28T07:43:05.859Z,72.55
2019-03-28T07:45:34.662Z,72.50
2019-03-28T07:48:02.699Z,72.56
2019-03-28T07:50:33.366Z,72.49
2019-03-28T07:53:00.343Z,71.58
2019-03-28T07:55:28.234Z,72.30
2019-03-28T07:57:56.070Z,72.33
2019-03-28T08:00:23.947Z,71.86
2019-03-28T08:02:51.760Z,71.86
2019-03-28T08:05:20.219Z,71.78
2019-03-28T08:07:48.089Z,71.84
2019-03-28T08:10:16.144Z,72.07
2019-03-28T08:12:44.018Z,71.96
2019-03-28T08:15:12.136Z,71.80
2019-03-28T08:17:39.975Z,71.56
2019-03-28T08:20:08.877Z,71.55
2019-03-28T08:22:36.677Z,71.49
2019-03-28T08:25:09.554Z,71.33
2019-03-28T08:27:34.764Z,70.90
2019-03-28T08:30:02.925Z,71.14
2019-03-28T08:32:30.840Z,71.38
2019-03-28T08:34:58.709Z,71.41
2019-03-28T08:37:27.422Z,71.44
2019-03-28T08:39:55.769Z,71.52
2019-03-28T08:42:24.156Z,71.41
2019-03-28T08:44:51.976Z,71.29
2019-03-28T08:47:19.822Z,71.25
2019-03-28T08:49:47.679Z,70.96
2019-03-28T08:52:15.476Z,70.72
2019-03-28T08:54:43.347Z,70.55
2019-03-28T08:57:11.172Z,69.94
2019-03-28T08:59:38.984Z,69.70
2019-03-28T09:02:07.290Z,69.66
2019-03-28T09:04:35.149Z,69.65
2019-03-28T09:07:03.346Z,69.24
2019-03-28T09:09:31.158Z,69.37
2019-03-28T09:11:58.989Z,69.11
2019-03-28T09:14:26.821Z,68.64
2019-03-28T09:16:54.621Z,68.47
2019-03-28T09:19:22.503Z,68.53
2019-03-28T09:21:50.315Z,67.97
2019-03-28T09:24:18.192Z,67.86
2019-03-28T09:26:46.047Z,67.84
2019-03-28T09:29:13.887Z,67.68
2019-03-28T09:31:41.805Z,67.55
2019-03-28T09:34:09.641Z,67.52
2019-03-28T09:36:40.216Z,67.25
2019-03-28T09:39:08.986Z,66.90
2019-03-28T09:41:36.803Z,67.05
2019-03-28T09:44:04.614Z,66.19
2019-03-28T09:46:32.463Z,66.92
2019-03-28T09:49:00.470Z,66.92
2019-03-28T09:51:28.261Z,67.04
2019-03-28T09:53:56.120Z,66.90
2019-03-28T09:56:24.034Z,66.69
2019-03-28T09:58:51.831Z,67.35
2019-03-28T10:01:19.770Z,67.26
2019-03-28T10:03:47.654Z,66.76
2019-03-28T10:06:15.555Z,66.55
2019-03-28T10:08:43.569Z,66.11
2019-03-28T10:11:11.374Z,66.76
2019-03-28T10:13:39.208Z,66.28
2019-03-28T10:16:07.101Z,64.93
2019-03-28T10:18:34.933Z,65.90
2019-03-28T10:21:02.779Z,66.55
2019-03-28T10:23:30.576Z,66.45
2019-03-28T10:25:58.437Z,66.12
2019-03-28T10:28:26.288Z,66.04
2019-03-28T10:30:54.148Z,66.47
2019-03-28T10:33:22.020Z,66.17
2019-03-28T10:35:49.855Z,65.68
2019-03-28T10:38:18.847Z,65.60
2019-03-28T10:40:47.126Z,65.25
2019-03-28T10:43:15.010Z,64.55
2019-03-28T10:45:42.834Z,63.58
2019-03-28T10:48:10.673Z,63.19
2019-03-28T10:50:45.551Z,63.09
2019-03-28T10:53:08.184Z,63.29
2019-03-28T10:55:36.274Z,62.99
2019-03-28T10:58:17.779Z,63.53
2019-03-28T11:00:34.756Z,63.93
2019-03-28T11:03:02.757Z,63.92
2019-03-28T11:05:30.733Z,63.23
2019-03-28T11:07:58.719Z,63.23
2019-03-28T11:10:27.762Z,62.76
2019-03-28T11:12:57.855Z,63.06
2019-03-28T11:15:26.962Z,63.76
2019-03-28T11:17:54.779Z,63.61
2019-03-28T11:20:25.636Z,63.48
2019-03-28T11:22:53.723Z,63.28
2019-03-28T11:25:21.597Z,63.10
2019-03-28T11:27:49.850Z,62.83
2019-03-28T11:30:18.571Z,63.10
2019-03-28T11:32:46.602Z,63.26
2019-03-28T11:35:14.468Z,62.95
2019-03-28T11:37:42.254Z,63.53
2019-03-28T11:40:10.506Z,63.57
2019-03-28T11:42:38.376Z,63.67
2019-03-28T11:45:09.229Z,64.01
2019-03-28T11:47:36.998Z,63.46
2019-03-28T11:50:05.745Z,62.08
2019-03-28T11:52:34.762Z,62.82
2019-03-28T11:55:02.674Z,62.94
2019-03-28T11:57:30.487Z,63.24
2019-03-28T11:59:58.319Z,63.28
2019-03-28T12:02:26.115Z,63.46
2019-03-28T12:04:53.974Z,63.41
2019-03-28T12:07:21.910Z,62.53
2019-03-28T12:09:49.840Z,63.62
2019-03-28T12:12:17.664Z,63.46
2019-03-28T12:14:45.524Z,63.14
2019-03-28T12:17:13.351Z,62.91
2019-03-28T12:19:41.179Z,63.31
2019-03-28T12:22:08.974Z,63.12
2019-03-28T12:24:36.823Z,63.19
2019-03-28T12:27:04.704Z,62.90
2019-03-28T12:29:35.707Z,63.03
2019-03-28T12:32:13.408Z,62.88
2019-03-28T12:34:32.010Z,63.01
2019-03-28T12:36:59.849Z,62.89
2019-03-28T12:39:27.635Z,62.53
2019-03-28T12:41:55.496Z,62.73
2019-03-28T12:44:23.324Z,63.16
2019-03-28T12:46:51.174Z,62.70
2019-03-28T12:49:18.998Z,62.44
2019-03-28T12:51:46.794Z,62.35
2019-03-28T12:54:14.638Z,62.46
2019-03-28T12:56:42.523Z,62.03
2019-03-28T12:59:10.366Z,63.36
2019-03-28T13:01:38.203Z,63.35
2019-03-28T13:04:05.995Z,62.97
2019-03-28T13:06:33.823Z,62.73
2019-03-28T13:09:01.668Z,62.62
2019-03-28T13:11:29.516Z,62.49
2019-03-28T13:13:57.316Z,63.57
2019-03-28T13:16:25.224Z,62.66
2019-03-28T13:18:53.276Z,62.10
2019-03-28T13:21:24.070Z,61.06
2019-03-28T13:23:52.109Z,61.22
2019-03-28T13:26:19.931Z,60.87
2019-03-28T13:28:47.715Z,61.39
2019-03-28T13:31:15.526Z,61.13
2019-03-28T13:33:43.478Z,60.15
2019-03-28T13:36:11.252Z,60.48
2019-03-28T13:38:39.089Z,58.20
2019-03-28T13:41:06.982Z,57.82
2019-03-28T13:43:34.793Z,56.29
2019-03-28T13:46:02.601Z,56.73
2019-03-28T13:48:30.470Z,56.76
2019-03-28T13:50:58.311Z,56.61
2019-03-28T13:53:38.657Z,56.78
2019-03-28T13:55:55.819Z,57.48
2019-03-28T13:58:23.614Z,58.22
2019-03-28T14:00:54.410Z,58.36
2019-03-28T14:03:21.117Z,58.65
2019-03-28T14:05:48.948Z,58.12
2019-03-28T14:08:16.837Z,58.31
2019-03-28T14:10:44.752Z,58.38
2019-03-28T14:13:12.590Z,58.15
2019-03-28T14:15:40.418Z,58.23
2019-03-28T14:18:08.197Z,57.55
2019-03-28T14:20:36.072Z,58.38
2019-03-28T14:23:03.891Z,58.10
2019-03-28T14:25:31.699Z,57.72
2019-03-28T14:27:59.508Z,56.73
2019-03-28T14:30:27.345Z,57.27
2019-03-28T14:33:09.993Z,56.81
2019-03-28T14:35:24.996Z,56.78
2019-03-28T14:37:52.771Z,57.49
2019-03-28T14:40:20.751Z,56.67
2019-03-28T14:42:48.583Z,56.08
2019-03-28T14:45:16.458Z,56.18
2019-03-28T14:47:44.214Z,55.82
2019-03-28T14:50:12.355Z,54.97
2019-03-28T14:52:43.269Z,53.36
2019-03-28T14:55:11.115Z,53.11
2019-03-28T14:57:40.087Z,52.63
2019-03-28T15:00:15.778Z,51.95
2019-03-28T15:02:43.668Z,51.36
2019-03-28T15:05:11.610Z,51.66
2019-03-28T15:07:40.375Z,53.07
2019-03-28T15:10:08.343Z,54.08
2019-03-28T15:12:36.189Z,54.81
2019-03-28T15:15:04.286Z,55.01
2019-03-28T15:17:32.101Z,53.76
2019-03-28T15:19:59.920Z,54.60
2019-03-28T15:22:27.680Z,55.25
2019-03-28T15:24:55.535Z,54.54
2019-03-28T15:27:23.383Z,53.68
2019-03-28T15:29:51.187Z,53.68
2019-03-28T15:32:19.024Z,53.38
2019-03-28T15:34:46.828Z,53.30
2019-03-28T15:37:14.612Z,53.44
2019-03-28T15:39:42.399Z,54.00
2019-03-28T15:42:10.201Z,54.40
2019-03-28T15:44:39.470Z,54.23
2019-03-28T15:47:07.352Z,54.21
2019-03-28T15:49:35.173Z,53.34
2019-03-28T15:52:03.376Z,52.05
2019-03-28T15:54:31.348Z,51.92
2019-03-28T15:56:59.256Z,51.64
2019-03-28T15:59:27.100Z,51.76
2019-03-28T16:01:54.894Z,52.01
2019-03-28T16:04:24.816Z,52.26
2019-03-28T16:06:52.447Z,52.12
2019-03-28T16:09:20.530Z,51.87
2019-03-28T16:12:01.671Z,52.03
2019-03-28T16:14:18.100Z,52.07
2019-03-28T16:16:45.889Z,52.42
2019-03-28T16:19:13.656Z,52.48
2019-03-28T16:21:41.476Z,52.60
2019-03-28T16:24:09.251Z,52.55
2019-03-28T16:26:37.040Z,52.51
2019-03-28T16:29:04.885Z,52.45
2019-03-28T16:31:32.693Z,52.12
2019-03-28T16:34:06.922Z,52.50
2019-03-28T16:36:30.197Z,53.17
2019-03-28T16:38:57.963Z,53.30
2019-03-28T16:41:25.758Z,53.44
2019-03-28T16:43:53.548Z,53.59
2019-03-28T16:46:21.366Z,53.88
2019-03-28T16:48:49.176Z,53.79
2019-03-28T16:51:17.662Z,53.74
2019-03-28T16:53:45.504Z,53.91
2019-03-28T16:56:13.303Z,53.88
2019-03-28T16:58:43.769Z,53.92
2019-03-28T17:01:11.741Z,53.88
2019-03-28T17:03:39.553Z,54.05
2019-03-28T17:06:08.036Z,54.23
2019-03-28T17:08:38.727Z,54.14
2019-03-28T17:11:06.553Z,54.37
2019-03-28T17:13:34.323Z,54.62
2019-03-28T17:16:02.065Z,54.59
2019-03-28T17:18:31.264Z,54.82
2019-03-28T17:20:59.531Z,54.80
2019-03-28T17:23:28.336Z,54.81
2019-03-28T17:25:56.143Z,54.97
2019-03-28T17:28:23.944Z,55.21
2019-03-28T17:30:51.825Z,55.38
2019-03-28T17:33:20.898Z,55.69
2019-03-28T17:35:49.016Z,56.01
2019-03-28T17:38:16.853Z,56.30
2019-03-28T17:40:44.686Z,56.67
2019-03-28T17:43:12.591Z,56.99
2019-03-28T17:45:40.523Z,57.16
2019-03-28T17:48:08.531Z,57.25
2019-03-28T17:50:36.299Z,57.43
2019-03-28T17:53:04.225Z,57.68
2019-03-28T17:55:32.385Z,57.89
2019-03-28T17:58:00.227Z,58.05
2019-03-28T18:00:28.359Z,58.17
2019-03-28T18:03:08.390Z,58.31
2019-03-28T18:05:26.085Z,58.53
2019-03-28T18:07:53.984Z,58.47
2019-03-28T18:10:21.955Z,58.58
2019-03-28T18:12:49.762Z,59.22
2019-03-28T18:15:17.601Z,59.75
2019-03-28T18:17:45.414Z,59.72
2019-03-28T18:20:13.685Z,59.96
2019-03-28T18:22:41.577Z,59.99
2019-03-28T18:25:10.001Z,59.92
2019-03-28T18:27:37.777Z,59.96
2019-03-28T18:30:06.174Z,59.87
2019-03-28T18:32:33.967Z,59.92
2019-03-28T18:35:05.545Z,59.96
2019-03-28T18:37:31.441Z,59.95
2019-03-28T18:39:59.271Z,60.04
2019-03-28T18:42:27.081Z,60.03
2019-03-28T18:44:54.872Z,60.06
2019-03-28T18:47:22.651Z,60.09
2019-03-28T18:49:50.613Z,60.20
2019-03-28T18:52:18.557Z,60.36
2019-03-28T18:54:46.397Z,60.49
2019-03-28T18:57:14.187Z,60.56
2019-03-28T18:59:41.966Z,60.61
2019-03-28T19:02:09.765Z,60.69
2019-03-28T19:04:37.584Z,60.77
2019-03-28T19:07:05.441Z,60.84
2019-03-28T19:09:33.239Z,60.89
2019-03-28T19:12:01.061Z,61.00
2019-03-28T19:14:28.866Z,61.04
2019-03-28T19:16:56.669Z,61.08
2019-03-28T19:19:38.375Z,61.26
2019-03-28T19:21:55.934Z,61.41
2019-03-28T19:24:24.191Z,61.61
2019-03-28T19:26:52.846Z,62.22
2019-03-28T19:29:20.729Z,62.42
2019-03-28T19:31:48.594Z,62.51
2019-03-28T19:34:16.366Z,62.49
2019-03-28T19:36:45.250Z,62.46
2019-03-28T19:39:16.626Z,62.42
2019-03-28T19:41:44.544Z,62.56
2019-03-28T19:44:12.475Z,62.67
2019-03-28T19:46:41.802Z,62.70
2019-03-28T19:49:09.745Z,62.80
2019-03-28T19:51:37.570Z,62.91
2019-03-28T19:54:05.359Z,62.98
2019-03-28T19:56:35.961Z,62.99
2019-03-28T19:59:04.288Z,63.09
2019-03-28T20:01:32.070Z,63.19
2019-03-28T20:03:59.914Z,63.22
2019-03-28T20:06:27.681Z,63.20
2019-03-28T20:08:55.554Z,63.24
2019-03-28T20:11:23.518Z,63.25
2019-03-28T20:13:51.381Z,63.29
2019-03-28T20:16:19.237Z,63.39
2019-03-28T20:18:47.036Z,63.54
2019-03-28T20:21:14.844Z,63.61
2019-03-28T20:23:42.678Z,63.80
2019-03-28T20:26:10.452Z,63.89
2019-03-28T20:28:38.240Z,63.93
2019-03-28T20:31:06.030Z,63.99
2019-03-28T20:33:33.813Z,64.08
2019-03-28T20:36:19.914Z,64.14
2019-03-28T20:38:31.430Z,64.56
2019-03-28T20:40:59.212Z,64.76
2019-03-28T20:43:27.087Z,64.80
2019-03-28T20:45:54.980Z,64.78
2019-03-28T20:48:22.771Z,64.75
2019-03-28T20:50:50.526Z,64.72
2019-03-28T20:53:18.416Z,64.75
2019-03-28T20:55:49.187Z,64.77
2019-03-28T20:58:16.962Z,64.77
2019-03-28T21:00:46.225Z,64.76
2019-03-28T21:03:15.353Z,64.70
2019-03-28T21:05:43.679Z,64.75
2019-03-28T21:08:11.773Z,64.80
2019-03-28T21:10:39.608Z,64.86
2019-03-28T21:13:07.436Z,64.87
2019-03-28T21:15:35.231Z,64.89
2019-03-28T21:18:03.008Z,64.86
2019-03-28T21:20:30.807Z,64.88
2019-03-28T21:22:58.616Z,64.90
2019-03-28T21:25:29.462Z,64.91
2019-03-28T21:27:56.154Z,64.86
2019-03-28T21:30:26.954Z,64.90
2019-03-28T21:32:55.625Z,64.95
2019-03-28T21:35:23.352Z,65.01
2019-03-28T21:37:51.212Z,65.10
2019-03-28T21:40:19.009Z,65.12
2019-03-28T21:42:46.865Z,65.11
2019-03-28T21:45:15.098Z,65.14
2019-03-28T21:47:43.018Z,65.16
2019-03-28T21:50:10.847Z,65.14
2019-03-28T21:52:38.676Z,65.20
2019-03-28T21:55:07.829Z,65.24
2019-03-28T21:57:35.643Z,65.29
2019-03-28T22:00:06.135Z,65.36
2019-03-28T22:02:35.895Z,65.42
2019-03-28T22:05:04.020Z,65.47
2019-03-28T22:07:31.870Z,65.49
2019-03-28T22:09:59.727Z,65.55
2019-03-28T22:12:27.501Z,65.58
2019-03-28T22:14:55.287Z,65.59
2019-03-28T22:17:23.095Z,65.72
2019-03-28T22:19:51.661Z,65.77
2019-03-28T22:22:19.747Z,65.83
2019-03-28T22:24:47.576Z,65.82
2019-03-28T22:27:15.411Z,65.83
2019-03-28T22:29:43.255Z,65.83
2019-03-28T22:32:11.895Z,65.76
2019-03-28T22:34:42.648Z,65.84
2019-03-28T22:37:10.514Z,65.85
2019-03-28T22:39:38.987Z,65.86
2019-03-28T22:42:07.097Z,65.77
2019-03-28T22:44:34.959Z,65.65
2019-03-28T22:47:02.763Z,65.64
2019-03-28T22:49:31.271Z,65.69
2019-03-28T22:51:59.719Z,65.71
2019-03-28T22:54:27.571Z,65.74
2019-03-28T22:56:55.406Z,65.73
2019-03-28T22:59:23.206Z,65.72
2019-03-28T23:01:51.027Z,65.71
2019-03-28T23:04:18.800Z,65.77
2019-03-28T23:06:46.583Z,65.83
2019-03-28T23:09:14.379Z,65.81
2019-03-28T23:11:42.523Z,65.75
2019-03-28T23:14:10.624Z,65.73
2019-03-28T23:16:38.448Z,65.76
2019-03-28T23:19:06.250Z,65.78
2019-03-28T23:21:34.071Z,65.78
2019-03-28T23:24:01.936Z,65.80
2019-03-28T23:26:29.674Z,65.77
2019-03-28T23:28:57.499Z,65.80
2019-03-28T23:31:25.304Z,65.82
2019-03-28T23:33:53.092Z,65.86
2019-03-28T23:36:20.898Z,65.84
2019-03-28T23:38:48.688Z,65.86
2019-03-28T23:41:16.555Z,65.86
2019-03-28T23:43:44.391Z,65.84
2019-03-28T23:46:12.183Z,65.84
2019-03-28T23:48:40.168Z,65.83
2019-03-28T23:51:07.977Z,65.82
2019-03-28T23:53:35.790Z,65.78
2019-03-28T23:56:03.633Z,65.74
2019-03-28T23:58:31.414Z,65.73
